sensor_id;sensor_type;location;lat;lon;timestamp;pressure;altitude;pressure_sealevel;temperature;humidity
62980;BME280;49075;53.988;27.678;2022-08-11T00:00:57;995.4;;;15.7;64.1
62980;BME280;49075;53.988;27.678;2022-08-11T00:05:57;995.5;;;15.8;64.3
62980;BME280;49075;53.988;27.678;2022-08-11T00:11:02;995.5;;;15.8;65.4
62980;BME280;49075;53.988;27.678;2022-08-11T00:15:57;995.5;;;15.9;65
62980;BME280;49075;53.988;27.678;2022-08-11T00:20:57;995.5;;;16.1;65.5
62980;BME280;49075;53.988;27.678;2022-08-11T00:25:57;995.5;;;16.2;64.9
62980;BME280;49075;53.988;27.678;2022-08-11T00:30:58;995.4;;;16.2;64.5
62980;BME280;49075;53.988;27.678;2022-08-11T00:35:57;995.5;;;16.1;64.6
62980;BME280;49075;53.988;27.678;2022-08-11T00:41:02;995.6;;;15.9;65.5
62980;BME280;49075;53.988;27.678;2022-08-11T01:01:07;995.6;;;15.5;66.1
62980;BME280;49075;53.988;27.678;2022-08-11T01:11:01;995.6;;;15.4;65.7
62980;BME280;49075;53.988;27.678;2022-08-11T01:16:05;995.7;;;15.2;66
62980;BME280;49075;53.988;27.678;2022-08-11T01:21:02;995.7;;;15.1;66.6
62980;BME280;49075;53.988;27.678;2022-08-11T01:25:59;995.7;;;15.2;66.8
62980;BME280;49075;53.988;27.678;2022-08-11T01:31:35;995.7;;;15.3;67
62980;BME280;49075;53.988;27.678;2022-08-11T01:36:05;995.8;;;15.5;66.4
62980;BME280;49075;53.988;27.678;2022-08-11T01:46:00;995.7;;;15.8;65.7
62980;BME280;49075;53.988;27.678;2022-08-11T01:51:16;995.7;;;15.7;65.6
62980;BME280;49075;53.988;27.678;2022-08-11T02:01:01;995.7;;;15.2;66.9
62980;BME280;49075;53.988;27.678;2022-08-11T02:06:30;995.7;;;15.3;66.6
62980;BME280;49075;53.988;27.678;2022-08-11T02:11:00;995.7;;;15.5;66.2
62980;BME280;49075;53.988;27.678;2022-08-11T02:16:02;995.6;;;15.4;66.5
62980;BME280;49075;53.988;27.678;2022-08-11T02:20:58;995.7;;;15.3;66.7
62980;BME280;49075;53.988;27.678;2022-08-11T02:25:59;995.7;;;15.3;66.1
62980;BME280;49075;53.988;27.678;2022-08-11T02:31:00;995.8;;;14.8;66.7
62980;BME280;49075;53.988;27.678;2022-08-11T02:36:06;995.8;;;14.7;67.3
62980;BME280;49075;53.988;27.678;2022-08-11T02:41:02;995.9;;;14.5;67.8
62980;BME280;49075;53.988;27.678;2022-08-11T02:46:30;995.9;;;14.6;68
62980;BME280;49075;53.988;27.678;2022-08-11T02:51:34;995.9;;;14.7;68.2
62980;BME280;49075;53.988;27.678;2022-08-11T02:56:18;995.9;;;14.7;67.6
62980;BME280;49075;53.988;27.678;2022-08-11T03:01:06;995.9;;;14.6;67.7
62980;BME280;49075;53.988;27.678;2022-08-11T03:06:03;995.9;;;14.5;68.5
62980;BME280;49075;53.988;27.678;2022-08-11T03:21:08;995.8;;;14.8;67.8
62980;BME280;49075;53.988;27.678;2022-08-11T03:26:02;995.8;;;15;68
62980;BME280;49075;53.988;27.678;2022-08-11T03:36:03;995.9;;;15.7;66.2
62980;BME280;49075;53.988;27.678;2022-08-11T03:41:02;996;;;15.8;65.7
62980;BME280;49075;53.988;27.678;2022-08-11T03:51:15;995.9;;;16.1;65.8
62980;BME280;49075;53.988;27.678;2022-08-11T04:01:19;995.9;;;16.6;63.8
62980;BME280;49075;53.988;27.678;2022-08-11T04:11:10;996;;;17.2;62.8
62980;BME280;49075;53.988;27.678;2022-08-11T04:16:03;996;;;17.4;62.1
62980;BME280;49075;53.988;27.678;2022-08-11T04:21:01;996;;;17.2;61.8
62980;BME280;49075;53.988;27.678;2022-08-11T04:26:10;996;;;17.2;62
62980;BME280;49075;53.988;27.678;2022-08-11T04:31:01;996;;;17.4;61.5
62980;BME280;49075;53.988;27.678;2022-08-11T04:36:01;995.9;;;17.6;61.4
62980;BME280;49075;53.988;27.678;2022-08-11T04:51:03;996;;;18.4;59.5
62980;BME280;49075;53.988;27.678;2022-08-11T04:56:03;996;;;18.4;58.9
62980;BME280;49075;53.988;27.678;2022-08-11T05:12:05;996.1;;;18.8;58.4
62980;BME280;49075;53.988;27.678;2022-08-11T05:15:57;996;;;19.2;57.1
62980;BME280;49075;53.988;27.678;2022-08-11T05:20:57;996;;;19.8;57.4
62980;BME280;49075;53.988;27.678;2022-08-11T05:25:58;996;;;20.2;55.7
62980;BME280;49075;53.988;27.678;2022-08-11T05:30:58;996;;;20.3;55.1
62980;BME280;49075;53.988;27.678;2022-08-11T05:36:07;996.1;;;20.4;54.7
62980;BME280;49075;53.988;27.678;2022-08-11T05:40:57;996.1;;;20.5;54.8
62980;BME280;49075;53.988;27.678;2022-08-11T05:45:59;996.2;;;20.7;53.9
62980;BME280;49075;53.988;27.678;2022-08-11T05:50:58;996.2;;;21.2;52.9
62980;BME280;49075;53.988;27.678;2022-08-11T05:55:57;996.1;;;21.3;51.7
62980;BME280;49075;53.988;27.678;2022-08-11T06:00:57;996.1;;;21.4;52.1
62980;BME280;49075;53.988;27.678;2022-08-11T06:05:57;996.1;;;21.9;51.1
62980;BME280;49075;53.988;27.678;2022-08-11T06:10:58;996.2;;;22.6;49.8
62980;BME280;49075;53.988;27.678;2022-08-11T06:15:57;996.2;;;23.1;48
62980;BME280;49075;53.988;27.678;2022-08-11T06:20:57;996.1;;;23.5;47.1
62980;BME280;49075;53.988;27.678;2022-08-11T06:25:57;996.1;;;24.1;46.5
62980;BME280;49075;53.988;27.678;2022-08-11T06:30:57;996.1;;;25;44.6
62980;BME280;49075;53.988;27.678;2022-08-11T06:36:02;996.1;;;25.6;42.9
62980;BME280;49075;53.988;27.678;2022-08-11T06:41:04;996.1;;;26.2;42
62980;BME280;49075;53.988;27.678;2022-08-11T06:46:01;996.1;;;26.9;39.7
62980;BME280;49075;53.988;27.678;2022-08-11T06:50:58;996;;;27.7;38.5
62980;BME280;49075;53.988;27.678;2022-08-11T06:55:57;996.1;;;27.6;36.4
62980;BME280;49075;53.988;27.678;2022-08-11T07:00:57;996.2;;;27.1;37.1
62980;BME280;49075;53.988;27.678;2022-08-11T07:06:04;996.1;;;28.3;36.2
62980;BME280;49075;53.988;27.678;2022-08-11T07:11:05;996.1;;;28.4;35.1
62980;BME280;49075;53.988;27.678;2022-08-11T07:15:57;996.2;;;28.7;34.4
62980;BME280;49075;53.988;27.678;2022-08-11T07:21:04;996.2;;;28.8;33.5
62980;BME280;49075;53.988;27.678;2022-08-11T07:25:57;996.2;;;28.7;34.2
62980;BME280;49075;53.988;27.678;2022-08-11T07:30:59;996.3;;;28.8;33.6
62980;BME280;49075;53.988;27.678;2022-08-11T07:35:57;996.2;;;28.4;33.6
62980;BME280;49075;53.988;27.678;2022-08-11T07:40:57;996.2;;;29;32.5
62980;BME280;49075;53.988;27.678;2022-08-11T07:45:57;996.2;;;28.9;32.7
62980;BME280;49075;53.988;27.678;2022-08-11T07:50:57;996.2;;;28.9;32
62980;BME280;49075;53.988;27.678;2022-08-11T07:55:58;996.1;;;29;31.9
62980;BME280;49075;53.988;27.678;2022-08-11T08:00:57;996.1;;;29;31.9
62980;BME280;49075;53.988;27.678;2022-08-11T08:05:57;996.1;;;29;31.9
62980;BME280;49075;53.988;27.678;2022-08-11T08:10:57;996.1;;;29;31.9
62980;BME280;49075;53.988;27.678;2022-08-11T08:15:57;996;;;29.4;31.2
62980;BME280;49075;53.988;27.678;2022-08-11T08:20:57;996;;;29.2;30.8
62980;BME280;49075;53.988;27.678;2022-08-11T08:25:57;996;;;28.4;31.3
62980;BME280;49075;53.988;27.678;2022-08-11T08:30:57;996;;;28.8;31.1
62980;BME280;49075;53.988;27.678;2022-08-11T08:35:58;995.9;;;29;30.8
62980;BME280;49075;53.988;27.678;2022-08-11T08:40:57;995.9;;;30.1;29.5
62980;BME280;49075;53.988;27.678;2022-08-11T08:45:57;995.9;;;30.8;28.6
62980;BME280;49075;53.988;27.678;2022-08-11T08:51:00;995.9;;;30.7;28.7
62980;BME280;49075;53.988;27.678;2022-08-11T08:55:59;995.9;;;30.7;28.4
62980;BME280;49075;53.988;27.678;2022-08-11T09:00:57;995.9;;;30.1;28.4
62980;BME280;49075;53.988;27.678;2022-08-11T09:05:57;995.8;;;30;28.7
62980;BME280;49075;53.988;27.678;2022-08-11T09:10:57;995.8;;;29.7;28.9
62980;BME280;49075;53.988;27.678;2022-08-11T09:15:57;995.8;;;29.7;29.1
62980;BME280;49075;53.988;27.678;2022-08-11T09:20:57;995.8;;;29.6;28.5
62980;BME280;49075;53.988;27.678;2022-08-11T09:25:58;995.8;;;29.7;28.8
62980;BME280;49075;53.988;27.678;2022-08-11T09:30:58;995.8;;;29.9;28.5
62980;BME280;49075;53.988;27.678;2022-08-11T09:35:57;995.9;;;30.2;28.2
62980;BME280;49075;53.988;27.678;2022-08-11T09:40:57;995.8;;;30.6;27.5
62980;BME280;49075;53.988;27.678;2022-08-11T09:45:57;995.8;;;29.8;28.6
62980;BME280;49075;53.988;27.678;2022-08-11T09:50:58;995.7;;;30.7;27.1
62980;BME280;49075;53.988;27.678;2022-08-11T09:55:57;995.7;;;31.4;26.4
62980;BME280;49075;53.988;27.678;2022-08-11T10:00:57;995.7;;;30.6;27.3
62980;BME280;49075;53.988;27.678;2022-08-11T10:05:58;995.7;;;30.8;26.8
62980;BME280;49075;53.988;27.678;2022-08-11T10:10:57;995.6;;;31.4;26.5
62980;BME280;49075;53.988;27.678;2022-08-11T10:15:57;995.6;;;31.4;26.6
62980;BME280;49075;53.988;27.678;2022-08-11T10:20:59;995.6;;;31.4;26.2
62980;BME280;49075;53.988;27.678;2022-08-11T10:25:57;995.5;;;31.4;26.2
62980;BME280;49075;53.988;27.678;2022-08-11T10:30:57;995.4;;;31.8;25.8
62980;BME280;49075;53.988;27.678;2022-08-11T10:35:57;995.4;;;31.9;25.4
62980;BME280;49075;53.988;27.678;2022-08-11T10:40:57;995.4;;;31.9;25.1
62980;BME280;49075;53.988;27.678;2022-08-11T10:45:57;995.3;;;31.9;24.9
62980;BME280;49075;53.988;27.678;2022-08-11T10:50:57;995.3;;;31.6;25.5
62980;BME280;49075;53.988;27.678;2022-08-11T10:55:57;995.3;;;30.8;26.3
62980;BME280;49075;53.988;27.678;2022-08-11T11:00:57;995.2;;;31.4;25.4
62980;BME280;49075;53.988;27.678;2022-08-11T11:06:00;995.2;;;31.1;25.9
62980;BME280;49075;53.988;27.678;2022-08-11T11:10:57;995.3;;;31;26.1
62980;BME280;49075;53.988;27.678;2022-08-11T11:15:57;995.2;;;30.5;26
62980;BME280;49075;53.988;27.678;2022-08-11T11:20:59;995.2;;;30.2;26.2
62980;BME280;49075;53.988;27.678;2022-08-11T11:26:03;995.1;;;29.9;27
62980;BME280;49075;53.988;27.678;2022-08-11T11:31:45;995.1;;;29.3;28
62980;BME280;49075;53.988;27.678;2022-08-11T11:37:03;995.2;;;28;29
62980;BME280;49075;53.988;27.678;2022-08-11T11:40:57;995.2;;;27.1;30.6
62980;BME280;49075;53.988;27.678;2022-08-11T11:45:57;995.2;;;26.8;31
62980;BME280;49075;53.988;27.678;2022-08-11T11:50:57;995.3;;;26.2;30.9
62980;BME280;49075;53.988;27.678;2022-08-11T11:55:57;995.2;;;26.1;31.5
62980;BME280;49075;53.988;27.678;2022-08-11T12:00:57;995.1;;;25.7;32
62980;BME280;49075;53.988;27.678;2022-08-11T12:05:57;995.1;;;25.4;33.2
62980;BME280;49075;53.988;27.678;2022-08-11T12:10:58;995.1;;;24.9;34.3
62980;BME280;49075;53.988;27.678;2022-08-11T12:15:57;995;;;24.6;35
62980;BME280;49075;53.988;27.678;2022-08-11T12:20:58;995.1;;;24.9;34.6
62980;BME280;49075;53.988;27.678;2022-08-11T12:25:57;995;;;24.7;35.1
62980;BME280;49075;53.988;27.678;2022-08-11T12:30:57;995;;;24.7;35
62980;BME280;49075;53.988;27.678;2022-08-11T12:35:57;995.1;;;24.6;35.4
62980;BME280;49075;53.988;27.678;2022-08-11T12:40:57;995.2;;;24.2;36.3
62980;BME280;49075;53.988;27.678;2022-08-11T12:45:57;995.2;;;23.9;36.6
62980;BME280;49075;53.988;27.678;2022-08-11T12:51:00;995.1;;;24;36.4
62980;BME280;49075;53.988;27.678;2022-08-11T12:55:59;995.2;;;24;36.7
62980;BME280;49075;53.988;27.678;2022-08-11T13:00:57;995.1;;;23.9;36.7
62980;BME280;49075;53.988;27.678;2022-08-11T13:05:58;995.1;;;24.1;36.4
62980;BME280;49075;53.988;27.678;2022-08-11T13:10:59;995.1;;;24.2;36.2
62980;BME280;49075;53.988;27.678;2022-08-11T13:15:57;995;;;24.3;36.2
62980;BME280;49075;53.988;27.678;2022-08-11T13:20:57;995;;;24.3;35.9
62980;BME280;49075;53.988;27.678;2022-08-11T13:25:57;995.1;;;24.2;36.1
62980;BME280;49075;53.988;27.678;2022-08-11T13:30:55;995;;;24.3;35.8
62980;BME280;49075;53.988;27.678;2022-08-11T13:35:55;995;;;24.3;35.9
62980;BME280;49075;53.988;27.678;2022-08-11T13:40:55;994.9;;;24.5;35.9
62980;BME280;49075;53.988;27.678;2022-08-11T13:45:55;994.9;;;24;36.8
62980;BME280;49075;53.988;27.678;2022-08-11T13:50:55;995;;;23.9;37.1
62980;BME280;49075;53.988;27.678;2022-08-11T14:08:55;994.8;;;23.8;36.7
62980;BME280;49075;53.988;27.678;2022-08-11T14:14:44;994.7;;;23.8;36.6
62980;BME280;49075;53.988;27.678;2022-08-11T14:19:39;994.7;;;23.7;36.9
62980;BME280;49075;53.988;27.678;2022-08-11T14:24:05;994.6;;;23.7;36.9
62980;BME280;49075;53.988;27.678;2022-08-11T14:29:19;994.7;;;23.8;37
62980;BME280;49075;53.988;27.678;2022-08-11T14:33:54;994.6;;;23.8;37.1
62980;BME280;49075;53.988;27.678;2022-08-11T14:38:45;994.6;;;23.7;37.3
62980;BME280;49075;53.988;27.678;2022-08-11T14:41:10;994.6;;;23.8;36.7
62980;BME280;49075;53.988;27.678;2022-08-11T14:43:54;994.6;;;23.8;36.7
62980;BME280;49075;53.988;27.678;2022-08-11T14:49:11;994.5;;;23.9;36.5
62980;BME280;49075;53.988;27.678;2022-08-11T14:53:51;994.5;;;23.7;37.1
62980;BME280;49075;53.988;27.678;2022-08-11T14:58:43;994.5;;;23.7;37.3
62980;BME280;49075;53.988;27.678;2022-08-11T15:03:47;994.4;;;23.7;37
62980;BME280;49075;53.988;27.678;2022-08-11T15:09:05;994.4;;;23.7;36.4
62980;BME280;49075;53.988;27.678;2022-08-11T15:14:06;994.4;;;23.6;36.8
62980;BME280;49075;53.988;27.678;2022-08-11T15:18:53;994.4;;;23.4;37.5
62980;BME280;49075;53.988;27.678;2022-08-11T15:23:53;994.3;;;23.4;38.1
62980;BME280;49075;53.988;27.678;2022-08-11T15:29:03;994.3;;;23.5;38.3
62980;BME280;49075;53.988;27.678;2022-08-11T15:33:54;994.3;;;23.5;38.1
62980;BME280;49075;53.988;27.678;2022-08-11T15:38:48;994.3;;;23.5;38
62980;BME280;49075;53.988;27.678;2022-08-11T15:43:48;994.3;;;23.5;37.9
62980;BME280;49075;53.988;27.678;2022-08-11T15:49:02;994.3;;;23.4;38.2
62980;BME280;49075;53.988;27.678;2022-08-11T15:54:07;994.3;;;23.1;39
62980;BME280;49075;53.988;27.678;2022-08-11T15:58:57;994.3;;;23;39.7
62980;BME280;49075;53.988;27.678;2022-08-11T16:03:57;994.3;;;23;39.7
62980;BME280;49075;53.988;27.678;2022-08-11T16:09:05;994.3;;;22.8;40.1
62980;BME280;49075;53.988;27.678;2022-08-11T16:14:03;994.3;;;22.8;40.3
62980;BME280;49075;53.988;27.678;2022-08-11T16:19:01;994.3;;;22.8;40.7
62980;BME280;49075;53.988;27.678;2022-08-11T16:23:44;994.3;;;22.7;40.7
62980;BME280;49075;53.988;27.678;2022-08-11T16:29:09;994.3;;;22.7;41
62980;BME280;49075;53.988;27.678;2022-08-11T16:33:39;994.3;;;22.7;40.8
62980;BME280;49075;53.988;27.678;2022-08-11T16:38:54;994.3;;;22.6;41
62980;BME280;49075;53.988;27.678;2022-08-11T16:43:55;994.3;;;22.4;41.3
62980;BME280;49075;53.988;27.678;2022-08-11T16:49:11;994.3;;;22.4;41.5
62980;BME280;49075;53.988;27.678;2022-08-11T16:53:41;994.3;;;22.4;41.5
62980;BME280;49075;53.988;27.678;2022-08-11T16:59:01;994.4;;;22.3;41.7
62980;BME280;49075;53.988;27.678;2022-08-11T17:03:59;994.4;;;22.3;41.7
62980;BME280;49075;53.988;27.678;2022-08-11T17:08:51;994.4;;;22.2;42
62980;BME280;49075;53.988;27.678;2022-08-11T17:14:40;994.5;;;22.1;42
62980;BME280;49075;53.988;27.678;2022-08-11T17:19:04;994.5;;;22;42.2
62980;BME280;49075;53.988;27.678;2022-08-11T17:23:52;994.5;;;21.9;42.6
62980;BME280;49075;53.988;27.678;2022-08-11T17:29:53;994.5;;;21.8;42.6
62980;BME280;49075;53.988;27.678;2022-08-11T17:34:21;994.5;;;21.8;42.6
62980;BME280;49075;53.988;27.678;2022-08-11T17:39:07;994.6;;;21.6;43.1
62980;BME280;49075;53.988;27.678;2022-08-11T17:44:21;994.6;;;21.5;43.3
62980;BME280;49075;53.988;27.678;2022-08-11T17:48:59;994.6;;;21.5;43.4
62980;BME280;49075;53.988;27.678;2022-08-11T17:53:51;994.7;;;21.4;43.9
62980;BME280;49075;53.988;27.678;2022-08-11T17:58:51;994.7;;;21.3;44.2
62980;BME280;49075;53.988;27.678;2022-08-11T18:04:21;994.7;;;21.2;44.6
62980;BME280;49075;53.988;27.678;2022-08-11T18:08:55;994.8;;;21.1;44.7
62980;BME280;49075;53.988;27.678;2022-08-11T18:13:45;994.8;;;21;45.2
62980;BME280;49075;53.988;27.678;2022-08-11T18:18:43;994.8;;;20.9;45.4
62980;BME280;49075;53.988;27.678;2022-08-11T18:24:23;994.9;;;20.8;45.8
62980;BME280;49075;53.988;27.678;2022-08-11T18:29:03;994.9;;;20.6;46.3
62980;BME280;49075;53.988;27.678;2022-08-11T18:34:26;994.9;;;20.4;46.6
62980;BME280;49075;53.988;27.678;2022-08-11T18:39:23;994.9;;;20.3;47.1
62980;BME280;49075;53.988;27.678;2022-08-11T18:43:51;995;;;20.2;47.3
62980;BME280;49075;53.988;27.678;2022-08-11T18:48:58;995;;;20.1;47.7
62980;BME280;49075;53.988;27.678;2022-08-11T18:53:43;995;;;20.1;48.1
62980;BME280;49075;53.988;27.678;2022-08-11T18:59:24;995;;;19.9;48.1
62980;BME280;49075;53.988;27.678;2022-08-11T19:03:45;994.9;;;19.8;48.4
62980;BME280;49075;53.988;27.678;2022-08-11T19:09:25;994.9;;;19.6;48.9
62980;BME280;49075;53.988;27.678;2022-08-11T19:13:55;994.9;;;19.6;49.1
62980;BME280;49075;53.988;27.678;2022-08-11T19:18:51;995;;;19.5;49.1
62980;BME280;49075;53.988;27.678;2022-08-11T19:23:46;995;;;19.4;49.6
62980;BME280;49075;53.988;27.678;2022-08-11T19:28:45;995;;;19.3;49.6
62980;BME280;49075;53.988;27.678;2022-08-11T19:33:45;995.1;;;19.2;50
62980;BME280;49075;53.988;27.678;2022-08-11T19:38:51;995.1;;;19.1;50.2
62980;BME280;49075;53.988;27.678;2022-08-11T19:44:01;995.1;;;19;50.7
62980;BME280;49075;53.988;27.678;2022-08-11T19:49:19;995.1;;;18.9;50.8
62980;BME280;49075;53.988;27.678;2022-08-11T19:54:01;995.2;;;18.8;51.2
62980;BME280;49075;53.988;27.678;2022-08-11T19:59:23;995.2;;;18.7;51.3
62980;BME280;49075;53.988;27.678;2022-08-11T20:03:53;995.3;;;18.6;51.8
62980;BME280;49075;53.988;27.678;2022-08-11T20:09:23;995.3;;;18.5;51.7
62980;BME280;49075;53.988;27.678;2022-08-11T20:14:04;995.3;;;18.4;52.1
62980;BME280;49075;53.988;27.678;2022-08-11T20:19:23;995.3;;;18.4;52.1
62980;BME280;49075;53.988;27.678;2022-08-11T20:23:51;995.3;;;18.4;51.9
62980;BME280;49075;53.988;27.678;2022-08-11T20:28:51;995.3;;;18.3;52.2
62980;BME280;49075;53.988;27.678;2022-08-11T20:33:45;995.4;;;18.3;52.2
62980;BME280;49075;53.988;27.678;2022-08-11T20:38:45;995.4;;;18.2;52.4
62980;BME280;49075;53.988;27.678;2022-08-11T20:44:25;995.4;;;18.2;52.4
62980;BME280;49075;53.988;27.678;2022-08-11T20:49:19;995.4;;;18.1;52.9
62980;BME280;49075;53.988;27.678;2022-08-11T20:54:22;995.5;;;18;53
62980;BME280;49075;53.988;27.678;2022-08-11T20:59:22;995.5;;;17.9;53.3
62980;BME280;49075;53.988;27.678;2022-08-11T21:03:53;995.5;;;17.9;53.1
62980;BME280;49075;53.988;27.678;2022-08-11T21:09:05;995.5;;;18;53.1
62980;BME280;49075;53.988;27.678;2022-08-11T21:14:02;995.5;;;18.1;53
62980;BME280;49075;53.988;27.678;2022-08-11T21:18:43;995.6;;;17.9;53.5
62980;BME280;49075;53.988;27.678;2022-08-11T21:24:23;995.7;;;17.8;54.1
62980;BME280;49075;53.988;27.678;2022-08-11T21:28:56;995.8;;;17.7;54.1
62980;BME280;49075;53.988;27.678;2022-08-11T21:34:07;995.8;;;17.6;54.6
62980;BME280;49075;53.988;27.678;2022-08-11T21:38:55;995.8;;;17.5;54.7
62980;BME280;49075;53.988;27.678;2022-08-11T21:43:55;995.8;;;17.5;55.1
62980;BME280;49075;53.988;27.678;2022-08-11T21:48:59;995.8;;;17.4;55.2
62980;BME280;49075;53.988;27.678;2022-08-11T21:53:59;995.9;;;17.3;55.7
62980;BME280;49075;53.988;27.678;2022-08-11T21:59:37;995.9;;;17.3;55.8
62980;BME280;49075;53.988;27.678;2022-08-11T22:03:51;995.9;;;17.2;56.3
62980;BME280;49075;53.988;27.678;2022-08-11T22:09:21;995.9;;;17.1;56.4
62980;BME280;49075;53.988;27.678;2022-08-11T22:14:19;995.9;;;17.1;56.8
62980;BME280;49075;53.988;27.678;2022-08-11T22:18:59;995.9;;;17;56.8
62980;BME280;49075;53.988;27.678;2022-08-11T22:24:01;995.9;;;16.9;57.4
62980;BME280;49075;53.988;27.678;2022-08-11T22:29:21;996;;;16.9;57.3
62980;BME280;49075;53.988;27.678;2022-08-11T22:33:53;995.9;;;16.8;57.8
62980;BME280;49075;53.988;27.678;2022-08-11T22:38:53;995.9;;;16.7;58.1
62980;BME280;49075;53.988;27.678;2022-08-11T22:43:53;995.9;;;16.6;58.5
62980;BME280;49075;53.988;27.678;2022-08-11T22:48:51;995.9;;;16.6;58.4
62980;BME280;49075;53.988;27.678;2022-08-11T22:54:18;995.9;;;16.4;59.4
62980;BME280;49075;53.988;27.678;2022-08-11T22:58:49;995.9;;;16.3;59.5
62980;BME280;49075;53.988;27.678;2022-08-11T23:04:05;995.8;;;16.3;59.8
62980;BME280;49075;53.988;27.678;2022-08-11T23:09:17;995.8;;;16.2;59.8
62980;BME280;49075;53.988;27.678;2022-08-11T23:24:03;995.8;;;16.2;59.8
62980;BME280;49075;53.988;27.678;2022-08-11T23:28:45;995.9;;;16.1;60.8
62980;BME280;49075;53.988;27.678;2022-08-11T23:34:18;995.9;;;16;61.4
62980;BME280;49075;53.988;27.678;2022-08-11T23:39:17;995.8;;;15.9;61
62980;BME280;49075;53.988;27.678;2022-08-11T23:43:57;995.8;;;15.9;61.6
62980;BME280;49075;53.988;27.678;2022-08-11T23:48:47;995.8;;;15.8;61.4
62980;BME280;49075;53.988;27.678;2022-08-11T23:54:03;995.8;;;15.8;62
62980;BME280;49075;53.988;27.678;2022-08-11T23:59:17;995.8;;;15.7;61.8
